Time;durP1;ratioP1;P1;durP2;ratioP2;P2;SDS_P1;SDS_P2;PMS_P1;PMS_P2;Temp;Humidity;BMP_temperature;BMP_pressure;BME280_temperature;BME280_humidity;BME280_pressure;Samples;Min_cycle;Max_cycle;Signal;HPM_P1;HPM_P2
2023/03/15 00:01:50;;;;;;;5.55;0.75;;;;;;;2.87;87.72;99970.91;5098010;29;20036;-76
2023/03/15 00:04:20;;;;;;;8.70;1.27;;;;;;;2.93;88.06;99981.16;5074373;29;20032;-73
2023/03/15 00:06:50;;;;;;;12.57;1.30;;;;;;;2.84;87.40;99978.69;5082397;29;20030;-76
2023/03/15 00:09:21;;;;;;;6.03;1.30;;;;;;;2.76;88.41;99982.25;5085269;29;20556;-76
2023/03/15 00:11:53;;;;;;;6.78;1.20;;;;;;;2.84;87.11;99985.59;5096955;29;20506;-77
2023/03/15 00:14:23;;;;;;;13.05;1.23;;;;;;;2.87;86.81;99986.38;5090290;29;20040;-76
2023/03/15 00:16:54;;;;;;;4.38;1.05;;;;;;;2.86;87.60;99989.00;5085229;29;20082;-76
2023/03/15 00:19:24;;;;;;;7.65;1.20;;;;;;;2.76;87.91;100002.88;5069616;29;20221;-76
2023/03/15 00:21:54;;;;;;;11.82;1.38;;;;;;;2.74;88.34;99999.47;5088468;29;20075;-75
2023/03/15 00:24:24;;;;;;;8.63;1.33;;;;;;;2.64;88.48;100003.91;5085716;29;20032;-76
2023/03/15 00:26:55;;;;;;;4.32;1.13;;;;;;;2.72;88.53;99994.31;5086171;29;20024;-75
2023/03/15 00:29:25;;;;;;;5.00;0.93;;;;;;;2.55;89.17;100008.34;5087757;29;20030;-76
2023/03/15 00:31:55;;;;;;;7.07;1.00;;;;;;;2.55;89.49;100016.06;5090886;29;20506;-76
2023/03/15 00:34:26;;;;;;;4.53;0.90;;;;;;;2.60;89.50;100011.69;5087936;29;20498;-76
2023/03/15 00:36:56;;;;;;;8.57;1.23;;;;;;;2.61;89.32;100021.16;5094225;29;20036;-76
2023/03/15 00:39:26;;;;;;;7.80;1.20;;;;;;;2.57;89.10;100022.06;5090047;29;20415;-76
2023/03/15 00:41:57;;;;;;;6.68;1.27;;;;;;;2.67;88.92;100027.06;5090060;29;20682;-76
2023/03/15 00:44:27;;;;;;;13.00;1.30;;;;;;;2.60;89.32;100027.16;5088433;29;20413;-76
2023/03/15 00:46:58;;;;;;;4.22;1.10;;;;;;;2.75;87.89;100034.72;5089978;29;20037;-76
2023/03/15 00:49:28;;;;;;;3.97;1.00;;;;;;;2.64;88.21;100034.88;5083080;29;20047;-76
2023/03/15 00:51:58;;;;;;;8.13;1.08;;;;;;;2.54;88.77;100037.56;5089039;29;20086;-76
2023/03/15 00:54:32;;;;;;;2.30;0.65;;;;;;;2.45;89.49;100037.66;5090061;29;20032;-76
2023/03/15 00:57:02;;;;;;;5.28;0.90;;;;;;;2.47;90.40;100046.28;5085048;29;20513;-76
2023/03/15 00:59:34;;;;;;;6.47;0.82;;;;;;;2.48;91.06;100038.50;5083712;29;20036;-76
2023/03/15 01:02:05;;;;;;;8.75;1.38;;;;;;;2.52;90.73;100041.91;5078256;29;20143;-77
2023/03/15 01:04:35;;;;;;;5.05;1.50;;;;;;;2.55;89.79;100040.16;5085544;29;20506;-76
2023/03/15 01:07:06;;;;;;;3.35;1.10;;;;;;;2.49;89.56;100040.19;5094837;29;20074;-76
2023/03/15 01:09:36;;;;;;;4.35;1.00;;;;;;;2.55;89.56;100049.59;5093233;29;20315;-76
2023/03/15 01:12:07;;;;;;;6.57;1.02;;;;;;;2.61;89.44;100049.50;5088880;29;20113;-76
2023/03/15 01:14:39;;;;;;;16.08;1.70;;;;;;;2.54;90.37;100050.47;5094619;29;20413;-76
2023/03/15 01:17:09;;;;;;;3.95;1.20;;;;;;;2.58;90.50;100050.41;5092819;29;20036;-76
2023/03/15 01:19:39;;;;;;;7.68;1.25;;;;;;;2.49;89.69;100054.84;5084006;29;20031;-76
2023/03/15 01:22:11;;;;;;;5.05;0.80;;;;;;;2.51;89.58;100058.25;5078683;29;20111;-77
2023/03/15 01:24:41;;;;;;;6.65;1.15;;;;;;;2.43;90.19;100049.72;5094167;29;20055;-76
2023/03/15 01:27:12;;;;;;;4.68;0.90;;;;;;;2.57;89.62;100058.16;5096772;29;20020;-74
2023/03/15 01:29:42;;;;;;;5.03;0.98;;;;;;;2.60;88.57;100053.81;5097273;29;20144;-75
2023/03/15 01:32:12;;;;;;;5.05;0.82;;;;;;;2.68;88.81;100057.16;5096039;29;20236;-76
2023/03/15 01:34:43;;;;;;;6.30;0.95;;;;;;;2.56;88.28;100057.31;5092153;29;20127;-76
2023/03/15 01:37:13;;;;;;;6.88;1.02;;;;;;;2.57;88.45;100060.75;5096057;29;20050;-76
2023/03/15 01:39:44;;;;;;;9.05;0.93;;;;;;;2.48;88.65;100059.13;5096748;29;20425;-76
2023/03/15 01:42:14;;;;;;;4.60;0.80;;;;;;;2.54;88.49;100059.03;5090386;29;20032;-76
2023/03/15 01:44:51;;;;;;;3.72;0.88;;;;;;;2.48;89.21;100064.28;5095092;29;20086;-76
2023/03/15 01:47:24;;;;;;;8.00;1.10;;;;;;;2.42;89.40;100060.91;5088526;29;20413;-76
2023/03/15 01:50:05;;;;;;;4.88;0.95;;;;;;;2.50;87.96;100059.13;5082216;29;20389;-76
2023/03/15 01:52:39;;;;;;;5.93;1.08;;;;;;;2.59;88.09;100067.59;5093099;29;20470;-76
2023/03/15 01:55:14;;;;;;;11.80;1.10;;;;;;;2.56;89.74;100062.47;5071684;29;20031;-75
2023/03/15 01:57:50;;;;;;;4.90;0.95;;;;;;;2.60;88.49;100059.00;5071394;29;20575;-76
2023/03/15 02:00:21;;;;;;;6.50;1.35;;;;;;;2.80;87.93;100062.16;5092934;29;20043;-77
2023/03/15 02:02:58;;;;;;;5.90;0.90;;;;;;;2.88;87.69;100065.50;5087334;29;20462;-76
2023/03/15 02:05:34;;;;;;;4.32;0.88;;;;;;;2.94;87.54;100069.72;5085383;29;20070;-76
2023/03/15 02:08:07;;;;;;;8.88;1.10;;;;;;;2.90;86.99;100071.50;5092727;29;20028;-76
2023/03/15 02:10:42;;;;;;;5.15;1.10;;;;;;;3.06;86.07;100070.41;5079432;29;20187;-76
2023/03/15 02:13:17;;;;;;;5.97;0.98;;;;;;;3.04;86.32;100061.00;5094931;28;20031;-76
2023/03/15 02:15:48;;;;;;;8.60;1.33;;;;;;;3.13;85.83;100066.00;5094125;29;20050;-77
2023/03/15 02:18:19;;;;;;;6.93;1.05;;;;;;;3.13;85.98;100066.88;5095056;29;20020;-73
2023/03/15 02:21:18;;;;;;;10.68;1.58;;;;;;;3.16;86.03;100061.66;5092460;29;20028;-76
2023/03/15 02:24:01;;;;;;;4.53;0.90;;;;;;;3.24;86.27;100069.31;5084885;29;20710;-76
2023/03/15 02:26:42;;;;;;;5.22;1.20;;;;;;;3.37;85.53;100068.25;5089604;29;20042;-76
2023/03/15 02:29:13;;;;;;;5.93;0.80;;;;;;;3.31;85.08;100070.91;5096235;29;20118;-76
2023/03/15 02:31:44;;;;;;;7.63;1.13;;;;;;;3.37;84.97;100074.25;5078494;29;20566;-77
2023/03/15 02:34:14;;;;;;;8.68;1.10;;;;;;;3.39;84.75;100075.09;5083811;29;20040;-76
2023/03/15 02:36:45;;;;;;;3.47;0.80;;;;;;;3.34;85.20;100076.91;5092609;29;20481;-76
2023/03/15 02:39:18;;;;;;;6.65;0.85;;;;;;;3.30;85.24;100074.38;5087767;29;20600;-75
2023/03/15 02:41:53;;;;;;;4.10;1.10;;;;;;;3.35;84.55;100076.00;5088972;29;20082;-76
2023/03/15 02:44:31;;;;;;;5.00;0.95;;;;;;;3.35;85.71;100075.19;5095302;29;20483;-76
2023/03/15 02:47:06;;;;;;;5.38;0.80;;;;;;;3.42;84.08;100066.44;5080629;29;20035;-76
2023/03/15 02:49:42;;;;;;;6.82;0.93;;;;;;;3.38;84.16;100072.53;5072147;29;20040;-77
2023/03/15 02:52:12;;;;;;;5.30;0.88;;;;;;;3.42;83.94;100084.53;5083781;29;20844;-77
2023/03/15 02:54:43;;;;;;;10.57;0.82;;;;;;;3.48;84.64;100090.47;5086763;29;20151;-76
2023/03/15 02:57:15;;;;;;;4.70;0.90;;;;;;;3.40;84.41;100101.78;5098299;29;20486;-75
2023/03/15 02:59:49;;;;;;;7.10;0.93;;;;;;;3.35;86.47;100103.59;5100080;29;20036;-76
2023/03/15 03:02:20;;;;;;;7.05;1.25;;;;;;;3.26;88.94;100098.53;5089745;29;20095;-76
2023/03/15 03:04:51;;;;;;;4.68;0.80;;;;;;;3.17;89.93;100114.16;5089096;29;20048;-76
2023/03/15 03:07:21;;;;;;;8.88;1.00;;;;;;;3.17;89.36;100111.59;5095724;29;20032;-76
2023/03/15 03:09:52;;;;;;;8.35;0.98;;;;;;;3.14;90.01;100115.03;5098704;29;20027;-76
2023/03/15 03:12:22;;;;;;;4.25;0.98;;;;;;;3.15;90.01;100123.63;5099338;29;20035;-76
2023/03/15 03:14:52;;;;;;;8.02;1.17;;;;;;;3.11;89.95;100119.38;5097176;29;20063;-76
2023/03/15 03:17:23;;;;;;;6.38;1.33;;;;;;;3.22;88.92;100122.69;5099696;29;20035;-73
2023/03/15 03:19:53;;;;;;;5.65;0.90;;;;;;;3.26;89.04;100126.94;5099934;29;20035;-76
2023/03/15 03:22:24;;;;;;;4.40;1.40;;;;;;;3.24;88.39;100132.13;5094299;29;20040;-77
2023/03/15 03:24:54;;;;;;;4.15;0.80;;;;;;;3.20;87.61;100139.94;5061531;29;20040;-76
2023/03/15 03:27:25;;;;;;;8.18;1.25;;;;;;;3.20;88.34;100138.19;5089023;29;20035;-76
2023/03/15 03:29:55;;;;;;;5.78;0.93;;;;;;;3.18;87.49;100146.84;5091073;29;20041;-76
2023/03/15 03:32:25;;;;;;;6.22;0.93;;;;;;;3.27;86.63;100144.13;5084106;29;20148;-77
2023/03/15 03:34:55;;;;;;;6.38;1.15;;;;;;;3.27;87.08;100151.88;5089254;29;20540;-76
2023/03/15 03:37:26;;;;;;;8.27;1.00;;;;;;;3.24;87.51;100150.22;5098869;29;20038;-76
2023/03/15 03:39:57;;;;;;;7.05;1.00;;;;;;;3.13;88.01;100144.31;5099911;29;20031;-76
2023/03/15 03:42:27;;;;;;;8.85;1.13;;;;;;;3.26;87.52;100155.31;5098542;29;20082;-76
2023/03/15 03:44:57;;;;;;;9.35;1.13;;;;;;;3.18;89.04;100158.00;5097126;29;20217;-77
2023/03/15 03:47:28;;;;;;;8.27;1.00;;;;;;;3.30;88.45;100159.56;5094892;29;20413;-76
2023/03/15 03:49:58;;;;;;;6.95;0.90;;;;;;;3.14;90.54;100152.91;5087262;29;20119;-76
2023/03/15 03:52:28;;;;;;;3.80;1.05;;;;;;;3.20;89.76;100156.25;5094486;29;20063;-76
2023/03/15 03:54:58;;;;;;;9.10;1.17;;;;;;;3.19;90.07;100159.72;5098488;29;20850;-76
2023/03/15 03:57:29;;;;;;;8.90;1.27;;;;;;;3.27;88.70;100160.50;5089527;29;20091;-75
2023/03/15 03:59:59;;;;;;;4.60;1.20;;;;;;;3.23;89.07;100168.28;5099707;29;20401;-77
2023/03/15 04:02:29;;;;;;;4.00;0.90;;;;;;;3.22;88.74;100172.56;5087762;29;20043;-76
2023/03/15 04:05:00;;;;;;;6.65;1.15;;;;;;;3.24;88.32;100182.91;5078222;29;20036;-73
2023/03/15 04:07:30;;;;;;;7.38;1.10;;;;;;;3.25;88.38;100184.59;5075455;29;20074;-76
2023/03/15 04:10:01;;;;;;;4.20;0.93;;;;;;;3.26;88.75;100183.72;5089201;29;20520;-76
2023/03/15 04:12:31;;;;;;;6.03;1.10;;;;;;;3.24;88.49;100185.47;5096697;29;20135;-75
2023/03/15 04:15:02;;;;;;;6.18;0.98;;;;;;;3.19;88.88;100188.09;5097437;29;20032;-76
2023/03/15 04:17:32;;;;;;;8.05;1.13;;;;;;;3.23;88.71;100191.53;5097572;29;20032;-76
2023/03/15 04:20:11;;;;;;;12.10;1.20;;;;;;;3.25;89.41;100193.22;5097992;29;20039;-76
2023/03/15 04:22:48;;;;;;;6.20;1.10;;;;;;;3.13;90.39;100195.94;5098308;29;20023;-74
2023/03/15 04:25:19;;;;;;;6.80;1.55;;;;;;;3.09;92.10;100203.72;5095341;29;20036;-76
2023/03/15 04:27:57;;;;;;;11.52;1.77;;;;;;;3.23;91.20;100201.84;5091069;28;20397;-75
2023/03/15 04:30:28;;;;;;;7.88;1.35;;;;;;;3.12;92.16;100201.97;5091602;29;20409;-75
2023/03/15 04:32:58;;;;;;;10.32;2.47;;;;;;;3.18;92.83;100212.22;5086742;29;20042;-75
2023/03/15 04:35:34;;;;;;;11.43;1.70;;;;;;;3.32;92.36;100207.75;5089847;29;20027;-75
2023/03/15 04:38:05;;;;;;;6.43;1.52;;;;;;;3.34;92.88;100218.91;5088158;29;20115;-75
2023/03/15 04:40:36;;;;;;;4.32;1.42;;;;;;;3.23;93.18;100217.34;5082909;29;20036;-76
2023/03/15 04:43:07;;;;;;;10.38;1.70;;;;;;;3.17;94.59;100217.41;5076558;29;20412;-76
2023/03/15 04:45:38;;;;;;;4.95;1.80;;;;;;;3.16;94.58;100228.63;5094991;29;20475;-76
2023/03/15 04:48:08;;;;;;;5.00;1.80;;;;;;;3.06;95.52;100234.75;5082291;29;20038;-76
2023/03/15 04:50:38;;;;;;;8.68;2.08;;;;;;;3.11;96.08;100227.78;5087784;29;20038;-76
2023/03/15 04:53:09;;;;;;;11.23;2.17;;;;;;;3.01;97.39;100234.78;5091489;29;20028;-76
2023/03/15 04:55:39;;;;;;;6.13;2.20;;;;;;;2.96;98.35;100244.31;5092855;29;20071;-76
2023/03/15 04:58:09;;;;;;;7.30;2.15;;;;;;;3.01;98.98;100245.09;5084314;29;20089;-76
2023/03/15 05:00:40;;;;;;;14.80;3.03;;;;;;;2.95;99.31;100240.03;5092909;29;20091;-76
2023/03/15 05:03:10;;;;;;;9.73;2.28;;;;;;;2.98;99.15;100252.88;5088954;29;20399;-73
2023/03/15 05:05:40;;;;;;;5.05;2.22;;;;;;;3.12;99.92;100245.00;5080086;29;20506;-73
2023/03/15 05:08:11;;;;;;;9.40;2.70;;;;;;;3.08;100.00;100243.31;5072350;29;20023;-77
2023/03/15 05:10:41;;;;;;;10.77;2.65;;;;;;;2.98;100.00;100257.19;5079705;29;20458;-74
2023/03/15 05:13:11;;;;;;;6.82;2.42;;;;;;;2.94;100.00;100263.25;5077021;29;20030;-73
2023/03/15 05:15:41;;;;;;;11.00;3.00;;;;;;;2.95;100.00;100263.25;5083645;29;20067;-74
2023/03/15 05:18:13;;;;;;;8.98;2.58;;;;;;;3.10;100.00;100269.97;5078288;29;20119;-76
2023/03/15 05:20:43;;;;;;;9.00;3.20;;;;;;;3.07;100.00;100272.59;5084819;29;20062;-77
2023/03/15 05:23:13;;;;;;;8.38;2.53;;;;;;;3.21;100.00;100276.72;5085735;29;20590;-76
2023/03/15 05:25:52;;;;;;;10.45;2.92;;;;;;;3.14;100.00;100288.00;5084615;29;20464;-76
2023/03/15 05:28:24;;;;;;;6.25;2.97;;;;;;;3.21;100.00;100286.22;5081785;29;20434;-77
2023/03/15 05:30:54;;;;;;;10.65;2.85;;;;;;;3.09;100.00;100291.50;5090170;29;20038;-76
2023/03/15 05:33:25;;;;;;;10.40;2.80;;;;;;;3.06;100.00;100296.69;5088845;29;20028;-76
2023/03/15 05:35:55;;;;;;;10.85;2.95;;;;;;;2.97;100.00;100307.97;5090832;29;20046;-77
2023/03/15 05:38:25;;;;;;;6.28;2.90;;;;;;;3.09;100.00;100301.81;5088571;29;20034;-77
2023/03/15 05:40:56;;;;;;;7.63;3.00;;;;;;;3.13;100.00;100309.50;5085720;29;20036;-77
2023/03/15 05:43:26;;;;;;;6.22;2.65;;;;;;;3.15;100.00;100304.31;5077162;29;20040;-76
2023/03/15 05:45:56;;;;;;;6.85;2.92;;;;;;;3.18;100.00;100315.47;5086151;29;20114;-74
2023/03/15 05:48:26;;;;;;;8.95;2.75;;;;;;;3.23;100.00;100325.75;5078556;29;20040;-76
2023/03/15 05:50:57;;;;;;;9.85;2.90;;;;;;;3.19;100.00;100326.69;5086467;29;20516;-76
2023/03/15 05:53:27;;;;;;;6.95;2.70;;;;;;;3.19;100.00;100330.09;5089466;29;20028;-76
2023/03/15 05:55:57;;;;;;;8.80;3.45;;;;;;;3.18;100.00;100343.03;5082418;29;20254;-76
2023/03/15 05:58:28;;;;;;;7.05;3.05;;;;;;;3.14;100.00;100351.66;5087504;29;20061;-76
2023/03/15 06:01:00;;;;;;;8.02;3.03;;;;;;;3.25;100.00;100355.00;5077167;29;20613;-76
2023/03/15 06:03:30;;;;;;;9.23;3.00;;;;;;;3.24;100.00;100359.31;5092226;29;20042;-77
2023/03/15 06:06:02;;;;;;;8.63;3.25;;;;;;;3.16;100.00;100361.09;5076496;29;20489;-77
2023/03/15 06:08:32;;;;;;;8.73;3.50;;;;;;;3.12;100.00;100363.72;5084758;29;20043;-77
2023/03/15 06:11:03;;;;;;;9.52;3.15;;;;;;;3.16;100.00;100370.59;5091924;29;20061;-77
2023/03/15 06:13:33;;;;;;;9.40;3.15;;;;;;;3.16;100.00;100380.94;5074904;29;20490;-76
2023/03/15 06:16:04;;;;;;;11.07;3.60;;;;;;;3.27;100.00;100385.13;5084773;29;20102;-77
2023/03/15 06:18:34;;;;;;;14.10;3.67;;;;;;;3.29;100.00;100392.81;5079050;29;20046;-77
2023/03/15 06:21:04;;;;;;;8.50;3.30;;;;;;;3.35;100.00;100400.53;5077430;29;20054;-76
2023/03/15 06:23:34;;;;;;;6.57;3.05;;;;;;;3.20;100.00;100401.50;5088161;29;20032;-76
2023/03/15 06:26:05;;;;;;;8.38;2.90;;;;;;;3.34;100.00;100406.56;5086057;29;20031;-77
2023/03/15 06:28:35;;;;;;;9.65;3.47;;;;;;;3.40;100.00;100414.25;5084770;29;20577;-77
2023/03/15 06:31:10;;;;;;;6.35;3.03;;;;;;;3.35;100.00;100416.03;5084901;29;20155;-76
2023/03/15 06:33:40;;;;;;;9.85;3.15;;;;;;;3.46;100.00;100419.34;5093080;29;20505;-74
2023/03/15 06:36:11;;;;;;;6.57;2.53;;;;;;;3.29;100.00;100418.66;5087764;29;20044;-77
2023/03/15 06:38:41;;;;;;;8.60;2.75;;;;;;;3.41;100.00;100418.53;5089463;29;20418;-76
2023/03/15 06:41:14;;;;;;;8.38;2.45;;;;;;;3.41;100.00;100426.28;5079804;29;20114;-74
2023/03/15 06:43:44;;;;;;;6.25;2.60;;;;;;;3.47;100.00;100424.50;5088917;29;20040;-74
2023/03/15 06:46:14;;;;;;;8.50;2.50;;;;;;;3.51;100.00;100433.09;5077683;29;20558;-74
2023/03/15 06:48:45;;;;;;;6.00;2.67;;;;;;;3.51;100.00;100435.69;5079915;29;20050;-75
2023/03/15 06:51:15;;;;;;;5.22;2.53;;;;;;;3.59;100.00;100445.91;5089775;29;20227;-77
2023/03/15 06:53:45;;;;;;;5.97;2.20;;;;;;;3.53;100.00;100446.84;5082692;29;20028;-77
2023/03/15 06:56:16;;;;;;;5.90;2.30;;;;;;;3.51;100.00;100448.59;5087222;29;20039;-75
2023/03/15 06:58:46;;;;;;;4.18;2.08;;;;;;;3.52;100.00;100447.72;5087201;29;20064;-77
2023/03/15 07:01:16;;;;;;;8.80;2.75;;;;;;;3.62;100.00;100451.03;5090307;29;20032;-76
2023/03/15 07:03:47;;;;;;;6.57;2.78;;;;;;;3.65;100.00;100448.41;5084699;29;20023;-77
2023/03/15 07:06:17;;;;;;;4.88;2.25;;;;;;;3.75;100.00;100452.63;5091662;29;20546;-77
2023/03/15 07:08:47;;;;;;;4.60;2.15;;;;;;;3.78;100.00;100457.75;5089834;29;20062;-77
2023/03/15 07:11:17;;;;;;;4.75;2.42;;;;;;;3.75;100.00;100460.38;5084563;29;20031;-76
2023/03/15 07:13:48;;;;;;;7.28;2.63;;;;;;;3.84;100.00;100462.03;5082313;29;20039;-74
2023/03/15 07:16:18;;;;;;;7.82;2.40;;;;;;;4.05;100.00;100454.91;5081379;29;20536;-76
2023/03/15 07:18:49;;;;;;;7.07;2.30;;;;;;;4.38;99.29;100457.06;5083522;29;20516;-78
2023/03/15 07:21:19;;;;;;;6.50;2.08;;;;;;;4.30;97.44;100461.47;5092631;29;20031;-77
2023/03/15 07:23:50;;;;;;;8.20;2.03;;;;;;;4.68;97.49;100464.44;5109502;23;20048;-72
2023/03/15 07:26:20;;;;;;;4.30;1.70;;;;;;;4.75;95.15;100468.66;5111695;29;20028;-71
2023/03/15 07:28:51;;;;;;;5.13;1.70;;;;;;;4.86;95.59;100471.94;5084436;29;20383;-73
2023/03/15 07:31:21;;;;;;;5.88;1.85;;;;;;;5.04;94.52;100466.50;5091223;29;20496;-70
2023/03/15 07:33:52;;;;;;;6.07;1.75;;;;;;;7.08;86.17;100465.13;5109266;29;20090;-72
2023/03/15 07:36:22;;;;;;;6.60;1.75;;;;;;;7.99;79.94;100465.38;5098344;29;20038;-73
2023/03/15 07:38:53;;;;;;;3.63;1.42;;;;;;;8.59;77.70;100467.13;5090921;29;20056;-73
2023/03/15 07:41:23;;;;;;;4.32;1.50;;;;;;;9.73;73.49;100468.69;5086699;29;20110;-73
2023/03/15 07:43:53;;;;;;;3.00;1.23;;;;;;;9.99;71.25;100472.09;5095957;29;20126;-74
2023/03/15 07:46:24;;;;;;;4.03;1.30;;;;;;;10.21;69.61;100477.47;5094071;29;20039;-74
2023/03/15 07:48:54;;;;;;;4.03;1.20;;;;;;;9.28;71.29;100485.88;5084437;29;20032;-73
2023/03/15 07:51:24;;;;;;;3.70;1.20;;;;;;;10.88;69.78;100476.69;5085754;29;20032;-73
2023/03/15 07:53:55;;;;;;;2.97;1.10;;;;;;;11.34;65.89;100482.66;5085554;29;20040;-75
2023/03/15 07:56:25;;;;;;;4.28;1.55;;;;;;;11.39;64.06;100480.72;5075766;29;20063;-74
2023/03/15 07:58:55;;;;;;;3.88;1.30;;;;;;;10.97;65.91;100486.78;5067298;29;20021;-74
2023/03/15 08:01:26;;;;;;;3.47;1.38;;;;;;;8.92;71.87;100497.41;5102717;29;20028;-73
2023/03/15 08:03:56;;;;;;;3.38;1.20;;;;;;;6.90;78.85;100514.91;5103999;29;20446;-74
2023/03/15 08:06:26;;;;;;;4.40;1.50;;;;;;;8.24;76.10;100516.75;5091105;29;20059;-74
2023/03/15 08:08:57;;;;;;;5.38;1.33;;;;;;;7.89;77.06;100518.56;5079881;29;20444;-74
2023/03/15 08:11:27;;;;;;;4.15;1.48;;;;;;;8.29;77.60;100516.63;5082930;29;20030;-72
2023/03/15 08:13:57;;;;;;;5.00;1.20;;;;;;;7.53;77.48;100525.50;5097471;29;20408;-75
2023/03/15 08:16:27;;;;;;;4.68;1.42;;;;;;;7.21;79.99;100524.56;5099805;29;20067;-73
2023/03/15 08:18:58;;;;;;;3.83;1.30;;;;;;;6.77;79.97;100529.88;5098603;29;20043;-74
2023/03/15 08:21:28;;;;;;;6.03;1.35;;;;;;;6.81;82.41;100536.75;5099033;29;20091;-73
2023/03/15 08:23:59;;;;;;;4.50;1.30;;;;;;;6.63;83.69;100537.09;5100273;29;20363;-75
2023/03/15 08:26:29;;;;;;;3.03;1.40;;;;;;;6.48;83.30;100540.00;5102482;29;20046;-73
2023/03/15 08:29:00;;;;;;;6.18;1.80;;;;;;;6.41;82.94;100546.19;5102677;29;20032;-74
2023/03/15 08:31:31;;;;;;;14.05;4.32;;;;;;;6.40;84.66;100554.03;5102517;29;20032;-73
2023/03/15 08:34:02;;;;;;;28.38;10.30;;;;;;;6.83;83.01;100552.28;5098088;29;20051;-73
2023/03/15 08:36:33;;;;;;;21.55;7.80;;;;;;;6.99;81.57;100558.84;5099615;29;20220;-73
2023/03/15 08:39:04;;;;;;;16.13;5.38;;;;;;;6.37;82.19;100567.03;5100339;29;20145;-74
2023/03/15 08:41:34;;;;;;;16.42;6.40;;;;;;;7.15;80.57;100560.22;5096976;29;20035;-73
2023/03/15 08:44:04;;;;;;;10.00;4.70;;;;;;;8.20;77.33;100548.13;5083122;29;20506;-74
2023/03/15 08:46:35;;;;;;;5.97;2.55;;;;;;;7.79;78.46;100556.09;5094703;29;20079;-73
2023/03/15 08:49:05;;;;;;;5.25;2.22;;;;;;;7.26;78.83;100558.25;5101656;29;20561;-73
2023/03/15 08:51:36;;;;;;;5.47;1.77;;;;;;;6.71;80.09;100571.56;5079900;29;20031;-73
2023/03/15 08:54:06;;;;;;;3.33;1.77;;;;;;;6.28;82.61;100580.19;5086406;29;20127;-72
2023/03/15 08:56:36;;;;;;;5.05;1.70;;;;;;;7.27;81.74;100588.56;5080998;29;20430;-74
2023/03/15 08:59:07;;;;;;;6.20;2.30;;;;;;;8.02;75.62;100574.59;5098040;29;20450;-74
2023/03/15 09:01:39;;;;;;;3.85;1.52;;;;;;;9.19;73.57;100577.41;5100267;29;20036;-73
2023/03/15 09:04:09;;;;;;;12.48;4.25;;;;;;;9.02;71.91;100577.03;5086777;29;20151;-74
2023/03/15 09:06:41;;;;;;;11.50;3.50;;;;;;;10.34;69.79;100580.63;5083496;29;20060;-74
2023/03/15 09:09:16;;;;;;;16.60;5.00;;;;;;;11.87;65.03;100575.59;5093432;29;20035;-74
2023/03/15 09:11:46;;;;;;;7.85;2.83;;;;;;;9.63;68.29;100593.38;5099281;29;20493;-74
2023/03/15 09:14:17;;;;;;;7.47;2.70;;;;;;;8.18;72.54;100604.59;5087528;29;20115;-73
2023/03/15 09:16:47;;;;;;;7.97;2.40;;;;;;;7.36;75.57;100621.25;5087009;29;20052;-72
2023/03/15 09:19:17;;;;;;;21.35;6.38;;;;;;;6.81;77.54;100625.03;5079467;29;20035;-74
2023/03/15 09:21:48;;;;;;;10.63;3.88;;;;;;;7.85;76.52;100619.22;5087678;29;20036;-72
2023/03/15 09:24:18;;;;;;;11.35;3.65;;;;;;;7.81;76.55;100620.22;5087904;29;20102;-72
2023/03/15 09:26:49;;;;;;;11.07;4.28;;;;;;;7.59;76.65;100615.53;5099199;29;20280;-72
2023/03/15 09:29:19;;;;;;;11.80;4.18;;;;;;;6.93;76.22;100634.31;5114570;28;20115;-73
2023/03/15 09:31:49;;;;;;;16.13;5.00;;;;;;;6.48;76.41;100648.16;5099862;29;20036;-73
2023/03/15 09:34:21;;;;;;;23.85;8.48;;;;;;;7.03;76.57;100643.63;5080632;29;20024;-72
2023/03/15 09:36:51;;;;;;;6.32;2.90;;;;;;;7.37;75.71;100648.09;5093852;29;20039;-73
2023/03/15 09:39:22;;;;;;;7.22;2.40;;;;;;;7.58;75.68;100640.69;5089261;28;20036;-73
2023/03/15 09:41:55;;;;;;;6.65;2.25;;;;;;;7.51;75.74;100641.72;5098504;29;20102;-75
2023/03/15 09:44:51;;;;;;;6.57;1.88;;;;;;;7.15;77.23;100653.78;5084638;29;20028;-73
2023/03/15 09:47:49;;;;;;;5.60;2.28;;;;;;;6.92;78.60;100656.84;5086071;29;20442;-74
2023/03/15 09:50:28;;;;;;;8.52;3.85;;;;;;;7.64;78.50;100644.88;5091555;29;20055;-73
2023/03/15 09:53:07;;;;;;;9.82;3.53;;;;;;;7.71;77.04;100654.28;5101331;29;20130;-75
2023/03/15 09:55:38;;;;;;;11.63;4.50;;;;;;;7.46;75.98;100661.75;5093170;29;20039;-74
2023/03/15 09:58:13;;;;;;;10.00;4.43;;;;;;;7.70;75.33;100658.59;5096812;29;20028;-75
2023/03/15 10:01:04;;;;;;;16.95;5.55;;;;;;;8.03;75.01;100655.22;5092983;29;20420;-73
2023/03/15 10:03:37;;;;;;;11.73;4.07;;;;;;;8.29;71.67;100655.50;5085637;29;20322;-75
2023/03/15 10:06:15;;;;;;;11.10;3.75;;;;;;;8.00;71.16;100663.09;5095197;29;20035;-74
2023/03/15 10:08:46;;;;;;;7.05;3.28;;;;;;;7.49;73.58;100666.91;5095578;29;20130;-74
2023/03/15 10:11:27;;;;;;;8.90;2.15;;;;;;;7.18;71.95;100677.09;5088999;29;20079;-74
2023/03/15 10:14:09;;;;;;;6.35;1.48;;;;;;;7.16;72.78;100679.75;5094792;29;20064;-74
2023/03/15 10:16:43;;;;;;;5.68;1.42;;;;;;;7.26;71.76;100668.25;5099516;29;20039;-74
2023/03/15 10:19:43;;;;;;;8.70;1.65;;;;;;;7.60;71.74;100661.44;5104551;29;20126;-74
2023/03/15 10:22:13;;;;;;;6.57;1.80;;;;;;;7.98;72.24;100658.81;5064605;29;20411;-74
2023/03/15 10:24:53;;;;;;;7.80;2.00;;;;;;;8.12;72.93;100654.16;5086964;29;20047;-75
2023/03/15 10:27:33;;;;;;;5.70;1.60;;;;;;;8.29;70.82;100652.00;5104456;29;20290;-74
2023/03/15 10:30:34;;;;;;;4.10;1.60;;;;;;;8.28;69.94;100653.78;5106657;29;20036;-74
2023/03/15 10:33:13;;;;;;;4.72;2.00;;;;;;;8.18;68.04;100647.06;5101490;29;20119;-74
2023/03/15 10:35:44;;;;;;;6.55;2.13;;;;;;;8.26;66.50;100642.56;5105277;29;20042;-74
2023/03/15 10:38:19;;;;;;;5.95;2.50;;;;;;;8.40;67.20;100648.25;5106099;29;20032;-74
2023/03/15 10:40:55;;;;;;;8.02;2.47;;;;;;;8.32;68.32;100644.13;5090394;29;20036;-73
2023/03/15 10:43:29;;;;;;;4.63;1.08;;;;;;;7.82;69.20;100647.94;5105810;29;20032;-74
2023/03/15 10:46:01;;;;;;;7.20;1.75;;;;;;;7.71;70.02;100655.13;5102519;29;20039;-74
2023/03/15 10:48:33;;;;;;;7.15;2.67;;;;;;;7.67;70.05;100665.66;5105369;29;20051;-74
2023/03/15 10:51:26;;;;;;;17.67;1.98;;;;;;;7.75;68.22;100656.78;5105900;29;20028;-74
2023/03/15 10:54:19;;;;;;;8.68;2.63;;;;;;;7.65;68.44;100664.78;5101917;28;20036;-74
2023/03/15 10:56:52;;;;;;;5.68;1.85;;;;;;;7.40;68.73;100659.31;5096372;29;20040;-72
2023/03/15 10:59:25;;;;;;;6.07;1.73;;;;;;;7.42;71.06;100662.72;5083896;29;20036;-73
2023/03/15 11:02:10;;;;;;;6.15;1.30;;;;;;;7.02;67.73;100676.56;5094002;29;20039;-73
2023/03/15 11:04:42;;;;;;;4.03;1.60;;;;;;;6.70;69.52;100686.69;5082613;29;20047;-73
2023/03/15 11:07:12;;;;;;;5.50;1.50;;;;;;;6.49;72.09;100688.81;5108834;29;20035;-73
2023/03/15 11:09:49;;;;;;;3.55;1.10;;;;;;;6.54;74.42;100694.78;5099926;29;20512;-73
2023/03/15 11:12:23;;;;;;;4.30;0.88;;;;;;;6.67;74.72;100693.69;5096789;29;20111;-72
2023/03/15 11:15:01;;;;;;;3.63;0.90;;;;;;;6.86;73.36;100701.13;5094477;29;20481;-73
2023/03/15 11:17:40;;;;;;;4.70;1.05;;;;;;;7.07;74.48;100692.91;5083581;29;20433;-74
2023/03/15 11:20:30;;;;;;;7.03;1.20;;;;;;;7.14;73.82;100698.84;5099867;29;20174;-74
2023/03/15 11:23:24;;;;;;;4.30;1.50;;;;;;;7.41;73.65;100689.63;5102682;29;20073;-74
2023/03/15 11:25:55;;;;;;;5.75;1.23;;;;;;;7.38;73.79;100689.66;5103653;29;20027;-73
2023/03/15 11:28:29;;;;;;;5.13;1.20;;;;;;;7.22;74.70;100700.41;5103283;29;20485;-74
2023/03/15 11:31:03;;;;;;;5.97;1.50;;;;;;;7.22;74.59;100689.16;5095953;29;20358;-74
2023/03/15 11:33:50;;;;;;;7.50;1.70;;;;;;;7.40;75.09;100700.91;5090156;29;20052;-74
2023/03/15 11:36:23;;;;;;;5.30;1.33;;;;;;;7.58;74.67;100700.50;5092945;29;20083;-73
2023/03/15 11:38:54;;;;;;;3.78;1.20;;;;;;;7.70;73.38;100700.22;5097525;29;20119;-74
2023/03/15 11:41:33;;;;;;;6.80;1.58;;;;;;;7.83;74.38;100690.41;5103134;29;20596;-73
2023/03/15 11:44:26;;;;;;;8.00;1.10;;;;;;;7.74;72.81;100699.25;5101915;29;20592;-73
2023/03/15 11:47:03;;;;;;;5.82;1.13;;;;;;;7.68;73.00;100702.00;5101269;29;20126;-74
2023/03/15 11:49:46;;;;;;;3.33;1.00;;;;;;;7.67;72.62;100705.50;5105008;29;20038;-74
2023/03/15 11:52:18;;;;;;;2.78;0.65;;;;;;;7.65;72.17;100702.09;5093207;29;20032;-74
2023/03/15 11:54:50;;;;;;;6.43;1.15;;;;;;;7.51;71.96;100704.13;5081551;29;20431;-73
2023/03/15 11:57:41;;;;;;;7.00;1.00;;;;;;;7.43;72.95;100705.16;5097226;29;20446;-74